Wortham, Mississippi
Current Conditions -  °F | °C
As of 9:53 PM on Sunday 21 Dec 2014 (Local Time) from KGPT Reporting Station
Haze Haze  
Wind Chill: 56°   Ceiling: 500
Heat Index: 56°   Visibility: 5mi
Dew Point: 54°   Wind: 6mph
Humidity: 93%   Direction: 90°E
Pressure: 29.98"   Gusts: NA
Location:  30.603°N, 89.0932°W
Report Text: KGPT 220353Z 09005KT 5SM BR OVC005 13/12 A2998 RMK AO2 SLP153 T01330122
Loading
Personal Weather Stations






























Interactive Weather Map New forecast layout! Learn more

10-Day Weather Forecast

Advertisements
Track Severe Weather on mobile